Baldwinholme, United Kingdom
Current Conditions -  °F | °C
As of 10:50 AM on Sunday 21 Dec 2014 (Local Time) from EGOM Reporting Station
Moderate Rain Moderate Rain  
Wind Chill: 35°   Ceiling: 200
Heat Index: 45°   Visibility: 2.4mi
Dew Point: 45°   Wind: 26mph
Humidity: 100%   Direction: 240°WSW
Pressure: 29.91"   Gusts: 38mph
Location:  54.92°N, 3.1°W
Report Text: EGOM 211050Z AUTO 24023G33KT 3900 RA OVC002/// 07/07 Q1013
Loading
Personal Weather Stations






























Interactive Weather Map New forecast layout! Learn more

10-Day Weather Forecast

Advertisements
Track Severe Weather on mobile